Have a Safe July 4th! 

Flight Track Log - Related Links

Times and Time Zones

All times are in EDT time to prevent confusion due to time zone crossing. See the N560ML flight status page for this flight to view local times or setup timezone preferences in your user account.

Time Position Orientation Groundspeed Altitude Reporting Facility
EDT Latitude Longitude Course Direction KTS MPH feet Rate Location/Type
Thu 01:55:34 PM 41.2664 -85.8808 99° East 203 234 2,600  Level Cleveland Center
Thu 01:56:35 PM 41.2011 -85.8836 182° South 295 339 6,900 4,244 Climbing Chicago Center
Thu 01:57:37 PM 41.1769 -85.7722 106° East 277 319 11,300 3,677 Climbing Chicago Center
Thu 01:58:39 PM 41.1656 -85.6683 98° East 283 326 14,500 2,688 Climbing Chicago Center
Thu 01:59:00 PM 41.3265 -85.1371 84° East  Level Estimated
Thu 01:59:42 PM 41.1600 -85.5581 94° East 298 343 16,900  Level Chicago Center
Thu 02:00:00 PM 41.3347 -85.0198 99° East  Level Estimated
Thu 02:00:44 PM 41.1547 -85.4247 93° East 368 423 17,100  Level Chicago Center
Thu 02:01:46 PM 41.1444 -85.2750 95° East 405 466 17,000  Descending Chicago Center
Thu 02:02:48 PM 41.1344 -85.0978 94° East 409 471 17,100  Climbing Chicago Center
Thu 02:03:50 PM 41.1256 -84.9519 95° East 404 465 17,000 -48 Descending Chicago Center
Thu 02:04:52 PM 41.1200 -84.8056 93° East 403 464 17,000 48 Level Chicago Center
Thu 02:05:54 PM 41.1097 -84.6589 95° East 402 463 17,100 48 Climbing Chicago Center
Thu 02:06:57 PM 41.1000 -84.5108 95° East 404 465 17,100 -48 Level Chicago Center
Thu 02:07:59 PM 41.0872 -84.3333 95° East 404 465 17,000 -48 Descending Chicago Center
Thu 02:09:01 PM 41.0772 -84.1864 95° East 404 465 17,000  Level Cleveland Center
Thu 02:10:03 PM 41.0700 -84.0372 94° East 404 465 17,000  Level Cleveland Center
Thu 02:11:05 PM 41.0592 -83.8883 95° East 406 467 17,000 48 Level Cleveland Center
Thu 02:12:07 PM 41.0458 -83.7200 96° East 406 467 17,100  Climbing Cleveland Center
Thu 02:13:09 PM 41.0372 -83.5706 94° East 407 468 17,000 -48 Descending Cleveland Center
Thu 02:14:12 PM 41.0256 -83.4214 96° East 407 468 17,000  Level Cleveland Center
Thu 02:15:14 PM 41.0158 -83.2706 95° East 408 470 17,000  Level Cleveland Center
Thu 02:16:16 PM 41.0036 -83.1069 96° East 409 471 17,000 -145 Level Cleveland Center
Thu 02:17:18 PM 40.9897 -82.9569 97° East 410 472 16,700 -339 Descending Cleveland Center
Thu 02:18:20 PM 40.9761 -82.8075 97° East 409 471 16,300 -617 Descending Cleveland Center
Thu 02:19:05 PM 40.9644 -82.6792 97° East 403 464 15,600 -947 Descending Cleveland Center
Thu 02:19:17 PM 40.9614 -82.6483 97° East 398 458 15,400 -1,151 Descending Cleveland Center
Thu 02:20:18 PM 40.9536 -82.5139 94° East 366 421 14,200 -1,125 Descending Cleveland Center
Thu 02:21:25 PM 41.0053 -82.3950 60° Northeast 358 412 13,000 -1,172 Descending Cleveland Center
Thu 02:22:26 PM 41.0808 -82.3108 40° Northeast 353 406 11,700 -952 Descending Cleveland Center
Thu 02:23:31 PM 41.1528 -82.2133 46° Northeast 355 409 11,000 -313 Descending Cleveland Center
Thu 02:24:21 PM 41.2086 -82.1403 45° Northeast 325 374 11,100 97 Climbing Cleveland Center
Thu 02:24:33 PM 41.2167 -82.1281 49° Northeast 327 376 11,100 -393 Level Cleveland Center
Thu 02:25:22 PM 41.2808 -82.0633 37° Northeast 312 359 10,700 -484 Descending Cleveland Center
Thu 02:25:35 PM 41.2886 -82.0575 29° Northeast 326 375 10,600 -1,082 Descending Cleveland Center
Thu 02:26:23 PM 41.3628 -82.0183 22° Northeast 316 364 9,600 -968 Descending Cleveland Center
Thu 02:26:37 PM 41.3706 -82.0131 27° Northeast 319 367 9,600 -1,377 Level Cleveland Center
Thu 02:27:24 PM 41.4406 -81.9756 22° Northeast 289 333 8,200 -1,548 Descending Cleveland Center
Thu 02:27:39 PM 41.4472 -81.9706 29° Northeast 298 343 8,000 -1,800 Descending Cleveland Center
Thu 02:28:24 PM 41.5039 -81.9244 31° Northeast 264 304 6,400 -1,935 Descending Cleveland Center
Thu 02:28:41 PM 41.5175 -81.9033 49° Northeast 270 311 6,000 -1,475 Descending Cleveland Center
Thu 02:29:25 PM 41.5525 -81.8542 46° Northeast 249 287 4,900 -1,452 Descending Cleveland Center
Thu 02:29:43 PM 41.5650 -81.8328 52° Northeast 257 296 4,500 -885 Descending Cleveland Center
Thu 02:30:26 PM 41.5944 -81.7856 50° Northeast 230 265 4,000 -581 Descending Cleveland Center
Thu 02:30:45 PM 41.6061 -81.7658 52° Northeast 243 280 3,900 -689 Descending Cleveland Center
Thu 02:31:27 PM 41.6117 -81.7128 82° East 215 247 3,300 -871 Descending Cleveland Center
Thu 02:31:47 PM 41.6053 -81.6881 109° East 229 264 3,000 -1,100 Descending Cleveland Center
Thu 02:32:27 PM 41.5758 -81.6456 133° Southeast 218 251 2,200 -1,048 Descending Cleveland Center
Thu 02:32:50 PM 41.5631 -81.6308 139° Southeast 221 254 1,900 -885 Descending Cleveland Center
Thu 02:33:28 PM 41.5361 -81.6419 197° South 154 177 1,300 -871 Descending Cleveland Center
Thu 02:33:52 PM 41.5286 -81.6550 233° Southwest 170 196 1,000 -349 Descending Cleveland Center
Thu 02:34:54 PM 41.5078 -81.6986 237° Southwest 155 178 800 -194 Descending Cleveland Center

Login

Don't have an account? Register now (free) for customized features, flight alerts, and more!